Time;durP1;ratioP1;P1;durP2;ratioP2;P2;SDS_P1;SDS_P2;PMS_P1;PMS_P2;Temp;Humidity;BMP_temperature;BMP_pressure;BME280_temperature;BME280_humidity;BME280_pressure;Samples;Min_cycle;Max_cycle;Signal;HPM_P1;HPM_P2
2021/10/15 00:02:23;;;;;;;12.87;9.63;;;9.60;99.90;;;;;;5032353;28;20181;-70
2021/10/15 00:04:52;;;;;;;14.90;9.97;;;9.70;99.90;;;;;;5024117;28;20205;-70
2021/10/15 00:07:22;;;;;;;15.83;9.60;;;9.70;99.90;;;;;;5030890;28;20194;-70
2021/10/15 00:09:50;;;;;;;22.80;9.83;;;9.80;99.90;;;;;;5039790;28;20231;-70
2021/10/15 00:12:18;;;;;;;17.37;9.37;;;9.90;99.90;;;;;;5033196;28;20707;-70
2021/10/15 00:14:47;;;;;;;13.17;8.93;;;9.90;99.90;;;;;;5025254;28;20652;-70
2021/10/15 00:17:15;;;;;;;15.27;9.03;;;9.90;99.90;;;;;;5029507;28;20201;-70
2021/10/15 00:19:44;;;;;;;18.50;8.97;;;9.90;99.90;;;;;;5030631;28;20206;-70
2021/10/15 00:22:13;;;;;;;18.07;8.80;;;9.90;99.90;;;;;;5031003;28;20645;-70
2021/10/15 00:24:43;;;;;;;14.97;9.60;;;10.00;99.90;;;;;;5030083;28;20199;-70
2021/10/15 00:27:11;;;;;;;17.07;9.03;;;10.00;99.90;;;;;;5023141;28;20183;-70
2021/10/15 00:29:39;;;;;;;11.60;8.80;;;10.00;99.90;;;;;;5033051;28;20190;-70
2021/10/15 00:32:08;;;;;;;13.87;9.00;;;10.10;99.90;;;;;;5031213;28;20244;-70
2021/10/15 00:34:38;;;;;;;13.63;8.93;;;10.10;99.90;;;;;;5028758;28;20668;-70
2021/10/15 00:37:07;;;;;;;20.53;9.37;;;10.10;99.90;;;;;;5030419;28;20197;-70
2021/10/15 00:39:36;;;;;;;16.27;9.00;;;10.20;99.90;;;;;;5027526;28;20597;-70
2021/10/15 00:42:06;;;;;;;14.23;8.97;;;10.10;99.90;;;;;;5029852;28;20190;-70
2021/10/15 00:44:37;;;;;;;15.73;8.87;;;10.20;99.90;;;;;;5027238;28;20370;-70
2021/10/15 00:47:06;;;;;;;12.37;8.10;;;10.20;99.90;;;;;;5034921;28;20225;-69
2021/10/15 00:49:34;;;;;;;13.33;8.53;;;10.20;99.90;;;;;;5023120;28;20577;-70
2021/10/15 00:52:03;;;;;;;15.37;9.03;;;10.20;99.90;;;;;;5033103;28;20214;-70
2021/10/15 00:54:33;;;;;;;14.30;8.27;;;10.20;99.90;;;;;;5028971;28;20201;-70
2021/10/15 00:57:02;;;;;;;14.70;8.90;;;10.30;99.90;;;;;;5030923;28;20280;-70
2021/10/15 00:59:32;;;;;;;14.00;8.37;;;10.30;99.90;;;;;;5035368;28;20254;-70
2021/10/15 01:02:00;;;;;;;14.20;8.40;;;10.40;99.90;;;;;;5026869;28;20197;-70
2021/10/15 01:04:28;;;;;;;15.20;8.20;;;10.40;99.90;;;;;;5029415;28;20654;-70
2021/10/15 01:06:57;;;;;;;15.30;8.87;;;10.40;99.90;;;;;;5037283;28;20327;-70
2021/10/15 01:09:25;;;;;;;13.83;8.30;;;10.40;99.90;;;;;;5025380;28;20185;-70
2021/10/15 01:11:55;;;;;;;12.53;7.93;;;10.40;99.90;;;;;;5028788;28;20575;-70
2021/10/15 01:14:24;;;;;;;13.57;7.87;;;10.40;99.90;;;;;;5022370;28;20189;-70
2021/10/15 01:16:54;;;;;;;11.07;7.70;;;10.50;99.90;;;;;;5028710;28;20661;-70
2021/10/15 01:19:23;;;;;;;13.87;8.47;;;10.50;99.90;;;;;;5032759;28;20220;-70
2021/10/15 01:21:53;;;;;;;15.90;8.90;;;10.50;99.90;;;;;;5032575;28;20675;-70
2021/10/15 01:24:21;;;;;;;12.47;8.37;;;10.50;99.90;;;;;;5031470;28;20438;-70
2021/10/15 01:26:50;;;;;;;11.37;7.83;;;10.50;99.90;;;;;;5034667;28;20193;-69
2021/10/15 01:29:18;;;;;;;11.37;7.97;;;10.50;99.90;;;;;;5031623;28;20181;-70
2021/10/15 01:31:47;;;;;;;12.67;8.17;;;10.50;99.90;;;;;;5033990;28;20293;-70
2021/10/15 01:34:15;;;;;;;12.63;7.90;;;10.60;99.90;;;;;;5032069;28;20185;-69
2021/10/15 01:36:43;;;;;;;9.67;7.47;;;10.60;99.90;;;;;;5028382;28;20192;-70
2021/10/15 01:39:13;;;;;;;11.73;7.50;;;10.70;99.90;;;;;;5030654;28;20205;-70
2021/10/15 01:41:42;;;;;;;11.60;7.40;;;10.60;99.90;;;;;;5037378;28;20232;-70
2021/10/15 01:44:10;;;;;;;16.20;8.13;;;10.60;99.90;;;;;;5025333;28;20207;-70
2021/10/15 01:46:39;;;;;;;16.93;8.70;;;10.70;99.90;;;;;;5033208;28;20258;-70
2021/10/15 01:49:08;;;;;;;15.40;7.60;;;10.70;99.90;;;;;;5023556;28;20194;-69
2021/10/15 01:51:37;;;;;;;12.03;7.73;;;10.70;99.90;;;;;;5034350;28;20255;-70
2021/10/15 01:54:06;;;;;;;16.17;8.67;;;10.70;99.90;;;;;;5027999;28;20213;-70
2021/10/15 01:56:37;;;;;;;13.47;8.17;;;10.70;99.90;;;;;;5033561;28;20186;-70
2021/10/15 01:59:06;;;;;;;11.07;7.23;;;10.60;99.90;;;;;;5029251;28;20201;-70
2021/10/15 02:01:34;;;;;;;12.03;8.27;;;10.60;99.90;;;;;;5027699;28;20227;-70
2021/10/15 02:04:05;;;;;;;14.77;8.00;;;10.60;99.90;;;;;;5030078;28;20193;-70
2021/10/15 02:06:33;;;;;;;12.53;8.10;;;10.70;99.90;;;;;;5027644;28;20276;-69
2021/10/15 02:09:02;;;;;;;14.33;8.47;;;10.70;99.90;;;;;;5028005;28;20200;-70
2021/10/15 02:11:30;;;;;;;9.67;7.83;;;10.70;99.90;;;;;;5026964;28;20229;-70
2021/10/15 02:14:00;;;;;;;11.03;8.17;;;10.70;99.90;;;;;;5033674;28;20197;-70
2021/10/15 02:16:29;;;;;;;11.77;8.23;;;10.70;99.90;;;;;;5031337;28;20194;-70
2021/10/15 02:18:59;;;;;;;13.57;8.57;;;10.70;99.90;;;;;;5031500;28;20194;-70
2021/10/15 02:21:27;;;;;;;12.27;8.07;;;10.70;99.90;;;;;;5027507;28;20197;-70
2021/10/15 02:23:56;;;;;;;11.10;7.87;;;10.70;99.90;;;;;;5031895;28;20290;-70
2021/10/15 02:26:24;;;;;;;9.87;7.67;;;10.80;99.90;;;;;;5031346;28;20648;-70
2021/10/15 02:28:53;;;;;;;14.43;8.83;;;10.80;99.90;;;;;;5025573;28;20196;-70
2021/10/15 02:31:23;;;;;;;13.57;8.63;;;10.70;99.90;;;;;;5027745;28;20196;-70
2021/10/15 02:33:51;;;;;;;11.77;8.90;;;10.70;99.90;;;;;;5033062;28;20647;-70
2021/10/15 02:36:22;;;;;;;14.83;8.47;;;10.70;99.90;;;;;;5027836;28;20284;-70
2021/10/15 02:38:51;;;;;;;15.07;9.07;;;10.70;99.90;;;;;;5032280;28;20189;-70
2021/10/15 02:41:20;;;;;;;13.33;8.30;;;10.80;99.90;;;;;;5029039;28;20213;-70
2021/10/15 02:43:48;;;;;;;13.70;8.63;;;10.70;99.90;;;;;;5027032;28;20224;-69
2021/10/15 02:46:17;;;;;;;12.93;8.47;;;10.70;99.90;;;;;;5027673;28;20185;-70
2021/10/15 02:48:48;;;;;;;15.63;9.30;;;10.80;99.90;;;;;;5029093;28;20538;-70
2021/10/15 02:51:16;;;;;;;14.87;8.17;;;10.70;99.90;;;;;;5034205;28;20209;-70
2021/10/15 02:53:44;;;;;;;13.17;8.17;;;10.80;99.90;;;;;;5029916;28;20206;-70
2021/10/15 02:56:13;;;;;;;13.47;8.87;;;10.70;99.90;;;;;;5024635;28;20301;-70
2021/10/15 02:58:41;;;;;;;11.87;9.00;;;10.80;99.90;;;;;;5022316;28;20229;-70
2021/10/15 03:01:10;;;;;;;10.57;8.73;;;10.70;99.90;;;;;;5033434;28;20240;-70
2021/10/15 03:03:39;;;;;;;20.47;9.03;;;10.70;99.90;;;;;;5031002;28;20233;-70
2021/10/15 03:06:09;;;;;;;14.07;8.83;;;10.80;99.90;;;;;;5026613;28;20561;-69
2021/10/15 03:08:37;;;;;;;15.13;8.77;;;10.80;99.90;;;;;;5023612;28;20196;-70
2021/10/15 03:11:06;;;;;;;16.33;8.87;;;10.80;99.90;;;;;;5029699;28;20251;-69
2021/10/15 03:13:35;;;;;;;13.97;7.93;;;10.80;99.90;;;;;;5022051;28;20552;-69
2021/10/15 03:16:03;;;;;;;13.80;8.17;;;10.80;99.90;;;;;;5027487;28;20548;-70
2021/10/15 03:18:32;;;;;;;10.93;7.70;;;10.90;99.90;;;;;;5026057;28;20227;-69
2021/10/15 03:21:00;;;;;;;17.60;8.77;;;10.90;99.90;;;;;;5024808;28;20212;-70
2021/10/15 03:23:30;;;;;;;11.07;8.37;;;10.90;99.90;;;;;;5037423;28;20197;-70
2021/10/15 03:25:59;;;;;;;16.70;8.63;;;11.00;99.90;;;;;;5029317;28;20280;-70
2021/10/15 03:28:27;;;;;;;12.83;7.80;;;11.00;99.90;;;;;;5029054;28;20194;-70
2021/10/15 03:30:55;;;;;;;13.67;8.20;;;11.00;99.90;;;;;;5024757;28;20204;-70
2021/10/15 03:33:24;;;;;;;11.63;7.97;;;11.00;99.90;;;;;;5026545;28;20225;-69
2021/10/15 03:35:52;;;;;;;9.67;7.67;;;11.00;99.90;;;;;;5020807;28;20264;-70
2021/10/15 03:38:21;;;;;;;11.97;8.47;;;11.00;99.90;;;;;;5027863;28;20195;-70
2021/10/15 03:40:52;;;;;;;9.47;7.83;;;11.00;99.90;;;;;;5030652;28;20742;-70
2021/10/15 03:43:20;;;;;;;12.23;7.97;;;11.10;99.90;;;;;;5029250;28;20193;-70
2021/10/15 03:45:48;;;;;;;9.77;8.00;;;11.10;99.90;;;;;;5025087;28;20220;-70
2021/10/15 03:48:17;;;;;;;10.00;7.67;;;11.10;99.90;;;;;;5037263;28;20221;-70
2021/10/15 03:50:45;;;;;;;8.87;7.33;;;11.10;99.90;;;;;;5027611;28;20248;-69
2021/10/15 03:53:14;;;;;;;14.27;7.93;;;11.10;99.90;;;;;;5026359;28;20284;-70
2021/10/15 03:55:43;;;;;;;10.30;8.20;;;11.20;99.90;;;;;;5034851;28;20276;-69
2021/10/15 03:58:13;;;;;;;14.97;8.60;;;11.20;99.90;;;;;;5030469;28;20193;-70
2021/10/15 04:00:42;;;;;;;12.10;7.80;;;11.20;99.90;;;;;;5023345;28;20274;-70
2021/10/15 04:03:11;;;;;;;13.90;8.30;;;11.20;99.90;;;;;;5022681;28;20193;-70
2021/10/15 04:05:39;;;;;;;10.83;7.83;;;11.20;99.90;;;;;;5034215;28;20526;-70
2021/10/15 04:08:10;;;;;;;11.87;7.80;;;11.20;99.90;;;;;;5026639;28;20197;-70
2021/10/15 04:10:39;;;;;;;12.73;8.10;;;11.20;99.90;;;;;;5028492;28;20201;-70
2021/10/15 04:13:07;;;;;;;10.47;7.90;;;11.20;99.90;;;;;;5023326;28;20196;-69
2021/10/15 04:15:37;;;;;;;13.33;8.23;;;11.20;99.90;;;;;;5021570;28;20198;-70
2021/10/15 04:18:06;;;;;;;10.17;7.53;;;11.20;99.90;;;;;;5024385;28;20647;-70
2021/10/15 04:20:37;;;;;;;12.97;7.73;;;11.30;99.90;;;;;;5027786;28;20206;-70
2021/10/15 04:23:05;;;;;;;12.53;7.87;;;11.30;99.90;;;;;;5027094;28;20201;-69
2021/10/15 04:25:34;;;;;;;14.13;8.40;;;11.30;99.90;;;;;;5029599;28;20711;-70
2021/10/15 04:28:02;;;;;;;11.60;8.20;;;11.30;99.90;;;;;;5025650;28;20189;-70
2021/10/15 04:30:31;;;;;;;10.90;7.97;;;11.30;99.90;;;;;;5023856;28;20215;-70
2021/10/15 04:33:02;;;;;;;10.83;8.07;;;11.30;99.90;;;;;;5032406;28;20201;-70
2021/10/15 04:35:30;;;;;;;9.93;8.03;;;11.30;99.90;;;;;;5031926;28;20198;-70
2021/10/15 04:37:58;;;;;;;14.27;8.47;;;11.30;99.90;;;;;;5024869;28;20197;-70
2021/10/15 04:40:27;;;;;;;12.47;7.80;;;11.40;99.90;;;;;;5026920;28;20228;-70
2021/10/15 04:42:55;;;;;;;12.10;8.60;;;11.30;99.90;;;;;;5027672;28;20199;-69
2021/10/15 04:45:24;;;;;;;17.87;9.03;;;11.30;99.90;;;;;;5027226;28;20201;-67
2021/10/15 04:47:55;;;;;;;11.20;8.27;;;11.40;99.90;;;;;;5028601;28;20221;-70
2021/10/15 04:50:26;;;;;;;11.60;7.87;;;11.30;99.90;;;;;;5028285;28;20193;-70
2021/10/15 04:52:55;;;;;;;11.83;8.77;;;11.40;99.90;;;;;;5027263;28;20198;-70
2021/10/15 04:55:23;;;;;;;13.40;7.97;;;11.50;99.90;;;;;;5033725;28;20327;-70
2021/10/15 04:57:57;;;;;;;11.97;8.20;;;11.50;99.90;;;;;;5028088;28;20200;-70
2021/10/15 05:00:45;;;;;;;12.40;8.23;;;11.60;99.90;;;;;;5031949;28;20229;-70
2021/10/15 05:03:34;;;;;;;13.67;7.77;;;11.60;99.90;;;;;;5030331;28;20201;-69
2021/10/15 05:06:24;;;;;;;11.37;7.90;;;11.60;99.90;;;;;;5035262;28;20210;-70
2021/10/15 05:09:26;;;;;;;11.93;8.63;;;11.70;99.90;;;;;;5015975;28;20202;-70
2021/10/15 05:12:15;;;;;;;12.33;7.93;;;11.70;99.90;;;;;;5029195;28;20198;-70
2021/10/15 05:15:04;;;;;;;13.27;7.90;;;11.80;99.90;;;;;;5029001;28;20251;-70
2021/10/15 05:17:53;;;;;;;13.80;7.67;;;11.80;99.90;;;;;;5022809;28;20217;-70
2021/10/15 05:20:41;;;;;;;9.50;7.20;;;11.90;99.90;;;;;;5030265;28;20222;-69
2021/10/15 05:23:31;;;;;;;11.33;7.70;;;11.90;99.90;;;;;;5032088;28;20198;-70
2021/10/15 05:26:19;;;;;;;16.63;8.27;;;12.00;99.90;;;;;;5033816;28;20324;-70
2021/10/15 05:29:08;;;;;;;11.07;7.23;;;12.00;99.90;;;;;;5024228;28;20209;-70
2021/10/15 05:31:57;;;;;;;9.60;7.17;;;11.90;99.90;;;;;;5024557;28;20273;-70
2021/10/15 05:34:47;;;;;;;11.43;8.17;;;11.90;99.90;;;;;;5026111;28;20292;-70
2021/10/15 05:37:38;;;;;;;13.27;8.90;;;12.00;99.90;;;;;;5030429;28;20256;-70
2021/10/15 05:40:27;;;;;;;10.53;7.93;;;12.00;99.90;;;;;;5027239;28;20259;-70
2021/10/15 05:43:16;;;;;;;13.67;8.60;;;12.00;99.90;;;;;;5024256;28;20205;-70
2021/10/15 05:46:05;;;;;;;10.23;8.13;;;12.00;99.90;;;;;;5027341;28;20205;-69
2021/10/15 05:48:53;;;;;;;14.83;8.20;;;12.00;99.90;;;;;;5024316;28;20229;-69
2021/10/15 05:51:43;;;;;;;10.87;7.60;;;12.00;99.90;;;;;;5026679;28;20205;-70
2021/10/15 05:54:41;;;;;;;12.70;9.07;;;12.00;99.90;;;;;;5029438;28;20201;-70
2021/10/15 06:00:34;;;;;;;14.63;8.90;;;11.90;99.90;;;;;;5027579;28;20633;-70
2021/10/15 06:03:24;;;;;;;12.07;8.87;;;11.90;99.90;;;;;;5031640;28;20515;-70
2021/10/15 06:15:51;;;;;;;13.37;9.00;;;11.90;99.90;;;;;;5033097;28;20200;-70
2021/10/15 06:18:40;;;;;;;13.57;8.97;;;11.90;99.90;;;;;;5029204;28;20198;-70
2021/10/15 06:21:29;;;;;;;14.30;8.43;;;11.90;99.90;;;;;;5026436;28;20241;-69
2021/10/15 06:24:18;;;;;;;14.30;8.87;;;11.90;99.90;;;;;;5027570;28;20213;-70
2021/10/15 06:27:06;;;;;;;13.27;9.47;;;11.90;99.90;;;;;;5037917;28;20205;-70
2021/10/15 06:29:56;;;;;;;14.73;9.20;;;11.90;99.90;;;;;;5020275;28;20201;-70
2021/10/15 06:32:44;;;;;;;15.73;9.13;;;12.00;99.90;;;;;;5027471;28;20533;-70
2021/10/15 06:35:33;;;;;;;12.47;8.90;;;12.00;99.90;;;;;;5029742;28;20686;-70
2021/10/15 06:38:22;;;;;;;17.10;9.50;;;11.90;99.90;;;;;;5019427;28;20220;-69
2021/10/15 06:41:10;;;;;;;13.43;9.07;;;11.90;99.90;;;;;;5028636;28;20213;-70
2021/10/15 06:43:58;;;;;;;14.60;9.10;;;12.00;99.90;;;;;;5034997;28;20196;-70
2021/10/15 06:46:48;;;;;;;15.67;9.97;;;12.00;99.90;;;;;;5033236;28;20607;-70
2021/10/15 06:49:37;;;;;;;17.03;10.63;;;11.90;99.90;;;;;;5022944;28;20280;-70
2021/10/15 06:52:30;;;;;;;14.43;10.27;;;11.90;99.90;;;;;;5026299;28;20201;-70
2021/10/15 06:55:22;;;;;;;13.93;9.87;;;11.80;99.90;;;;;;5032253;28;20569;-70
2021/10/15 06:58:10;;;;;;;14.17;9.77;;;11.80;99.90;;;;;;5033756;28;20436;-70
2021/10/15 07:00:59;;;;;;;17.40;9.80;;;11.70;99.90;;;;;;5028646;28;20209;-69
2021/10/15 07:03:49;;;;;;;15.47;9.83;;;11.70;99.90;;;;;;5026425;28;20771;-70
2021/10/15 07:06:37;;;;;;;15.83;10.53;;;11.70;99.90;;;;;;5026826;28;20198;-70
2021/10/15 07:09:26;;;;;;;17.27;9.73;;;11.70;99.90;;;;;;5029730;28;20198;-70
2021/10/15 07:12:14;;;;;;;17.33;10.03;;;11.70;99.90;;;;;;5023214;28;20204;-70
2021/10/15 07:15:03;;;;;;;17.70;9.73;;;11.70;99.90;;;;;;5031556;28;20199;-70
2021/10/15 07:17:52;;;;;;;20.47;9.93;;;11.70;99.90;;;;;;5022418;28;20213;-70
2021/10/15 07:20:43;;;;;;;17.90;9.63;;;11.70;99.90;;;;;;5029891;28;20206;-70
2021/10/15 07:23:34;;;;;;;13.90;10.07;;;11.80;99.90;;;;;;5022842;28;20221;-70
2021/10/15 07:26:22;;;;;;;17.07;10.90;;;11.80;99.90;;;;;;5031281;28;20197;-70
2021/10/15 07:29:11;;;;;;;21.13;10.33;;;11.80;99.90;;;;;;5025840;28;20285;-70
2021/10/15 07:32:00;;;;;;;19.90;10.53;;;11.80;99.90;;;;;;5023052;28;20702;-70
2021/10/15 07:34:48;;;;;;;11.77;9.77;;;11.90;99.90;;;;;;5020043;28;20208;-70
2021/10/15 07:37:39;;;;;;;19.53;10.27;;;12.00;99.90;;;;;;5028540;28;20307;-70
2021/10/15 07:40:28;;;;;;;17.47;10.37;;;12.00;99.90;;;;;;5030598;28;20211;-70
2021/10/15 07:43:16;;;;;;;16.63;10.10;;;12.00;99.90;;;;;;5025786;28;20252;-69
2021/10/15 07:46:05;;;;;;;15.87;9.97;;;12.00;99.90;;;;;;5022715;28;20206;-70
2021/10/15 07:48:53;;;;;;;19.67;9.80;;;12.10;99.90;;;;;;5033323;28;20672;-70
2021/10/15 07:51:45;;;;;;;15.00;9.67;;;12.20;99.90;;;;;;5024072;28;20213;-70
2021/10/15 07:54:35;;;;;;;16.20;10.20;;;12.20;99.90;;;;;;5024335;28;20554;-70
2021/10/15 07:57:24;;;;;;;17.70;10.93;;;12.30;99.90;;;;;;5027353;28;20194;-70
2021/10/15 08:00:13;;;;;;;15.77;10.30;;;12.30;99.90;;;;;;5023733;28;20208;-69
2021/10/15 08:03:01;;;;;;;16.83;9.93;;;12.40;99.90;;;;;;5027052;28;20477;-69
2021/10/15 08:05:50;;;;;;;17.77;10.27;;;12.50;99.90;;;;;;5027705;28;20204;-70
2021/10/15 08:08:38;;;;;;;16.17;9.03;;;12.60;99.90;;;;;;5020745;28;20205;-70
2021/10/15 08:11:28;;;;;;;17.13;10.00;;;12.60;99.90;;;;;;5024104;28;20222;-70
2021/10/15 08:14:18;;;;;;;15.73;9.43;;;12.70;99.90;;;;;;5024694;28;20200;-70
2021/10/15 08:17:07;;;;;;;16.97;10.07;;;12.70;99.90;;;;;;5027696;28;20561;-70
2021/10/15 08:19:58;;;;;;;20.53;9.70;;;12.60;99.90;;;;;;5020208;28;20201;-70
2021/10/15 08:22:47;;;;;;;16.73;10.33;;;12.60;99.90;;;;;;5030129;28;20237;-70
2021/10/15 08:25:45;;;;;;;16.63;10.57;;;12.60;99.90;;;;;;5028649;28;20321;-70
2021/10/15 08:28:35;;;;;;;19.20;10.30;;;12.70;99.90;;;;;;5035029;28;20656;-70
2021/10/15 08:31:32;;;;;;;21.00;11.17;;;12.70;99.90;;;;;;5041665;28;20219;-70
2021/10/15 08:34:22;;;;;;;17.20;10.73;;;12.80;99.90;;;;;;5030286;28;20201;-70
2021/10/15 08:37:11;;;;;;;18.60;10.40;;;12.80;99.90;;;;;;5027754;28;20233;-70
2021/10/15 08:40:01;;;;;;;18.30;10.43;;;12.90;99.90;;;;;;5034614;28;20197;-70
2021/10/15 08:42:53;;;;;;;19.93;10.50;;;12.90;99.90;;;;;;5027364;28;20232;-70
2021/10/15 08:45:43;;;;;;;19.63;10.60;;;12.90;99.90;;;;;;5038331;28;20411;-70
2021/10/15 08:48:32;;;;;;;17.20;10.80;;;13.00;99.90;;;;;;5031223;28;20581;-70
2021/10/15 08:51:22;;;;;;;18.67;10.43;;;13.00;99.90;;;;;;5030874;28;20197;-70
2021/10/15 08:54:10;;;;;;;16.00;10.70;;;13.00;99.90;;;;;;5027728;28;20690;-70
2021/10/15 08:56:59;;;;;;;25.10;10.60;;;13.10;99.90;;;;;;5030700;28;20293;-70
2021/10/15 08:59:50;;;;;;;16.23;10.17;;;13.10;99.90;;;;;;5026905;28;20193;-70
2021/10/15 09:02:40;;;;;;;15.27;10.37;;;13.10;99.90;;;;;;5036743;28;20221;-70
2021/10/15 09:05:31;;;;;;;15.50;10.57;;;13.10;99.90;;;;;;5024609;28;20201;-70
2021/10/15 09:08:20;;;;;;;18.07;11.07;;;13.30;99.90;;;;;;5027155;28;20494;-70
2021/10/15 09:11:23;;;;;;;16.87;10.40;;;13.30;99.90;;;;;;5032086;28;20279;-70
2021/10/15 09:14:15;;;;;;;17.93;10.20;;;13.30;99.90;;;;;;5033743;28;20276;-70
2021/10/15 09:17:05;;;;;;;18.73;11.03;;;13.40;99.90;;;;;;5027913;28;20585;-69
2021/10/15 09:19:56;;;;;;;18.13;10.63;;;13.40;99.90;;;;;;5032034;28;20205;-70
2021/10/15 09:22:46;;;;;;;17.70;10.70;;;13.40;99.90;;;;;;5039346;28;20217;-70
2021/10/15 09:25:36;;;;;;;14.07;9.97;;;13.40;99.90;;;;;;5026070;28;20205;-70
2021/10/15 09:28:26;;;;;;;15.40;10.97;;;13.40;99.90;;;;;;5028937;28;20201;-70
2021/10/15 09:31:17;;;;;;;21.47;10.80;;;13.50;99.90;;;;;;5036772;28;20209;-70
2021/10/15 09:34:13;;;;;;;17.40;11.23;;;13.50;99.90;;;;;;5028456;28;20736;-70
2021/10/15 09:37:10;;;;;;;17.53;10.90;;;13.50;99.90;;;;;;5026939;28;20201;-70
2021/10/15 09:40:06;;;;;;;19.00;11.10;;;13.50;99.90;;;;;;5026966;28;20236;-70
2021/10/15 09:42:56;;;;;;;21.90;12.07;;;13.60;99.90;;;;;;5032387;28;20714;-70
2021/10/15 09:45:48;;;;;;;21.00;11.60;;;13.60;99.90;;;;;;5026426;28;20689;-70
2021/10/15 09:48:38;;;;;;;18.63;11.90;;;13.60;99.90;;;;;;5027231;28;20672;-71
2021/10/15 09:51:26;;;;;;;17.23;11.37;;;13.60;99.90;;;;;;5028480;28;20189;-70
2021/10/15 09:54:16;;;;;;;20.93;12.33;;;13.60;99.90;;;;;;5025820;28;20561;-70
2021/10/15 09:57:05;;;;;;;22.30;13.17;;;13.60;99.90;;;;;;5023525;28;20533;-71
2021/10/15 09:59:54;;;;;;;10.30;7.27;;;13.60;99.90;;;;;;5027303;28;20213;-70
2021/10/15 10:02:42;;;;;;;12.50;6.30;;;13.40;99.90;;;;;;5033144;28;20549;-71
2021/10/15 10:05:31;;;;;;;6.60;4.63;;;13.30;99.90;;;;;;5025479;28;20199;-71
2021/10/15 10:08:20;;;;;;;5.83;4.23;;;13.10;99.90;;;;;;5018566;28;20202;-71
2021/10/15 10:11:10;;;;;;;4.27;3.63;;;13.10;99.90;;;;;;5026335;28;20248;-71
2021/10/15 10:13:58;;;;;;;4.77;3.47;;;12.90;99.90;;;;;;5024629;28;20243;-72
2021/10/15 10:16:48;;;;;;;5.97;4.07;;;12.90;99.90;;;;;;5021737;28;20211;-71
2021/10/15 10:19:39;;;;;;;6.13;3.73;;;12.80;99.90;;;;;;5029298;28;20684;-71
2021/10/15 10:22:29;;;;;;;5.13;3.33;;;12.70;99.90;;;;;;5021950;28;20201;-71
2021/10/15 10:25:26;;;;;;;3.80;3.13;;;12.60;99.90;;;;;;5029086;28;20303;-71
2021/10/15 10:28:21;;;;;;;6.27;3.93;;;12.60;99.90;;;;;;5028618;28;20201;-71
2021/10/15 10:31:23;;;;;;;9.17;4.00;;;12.60;99.90;;;;;;5027467;28;20227;-71
2021/10/15 10:34:14;;;;;;;5.10;2.93;;;12.50;99.90;;;;;;5022114;28;20189;-71
2021/10/15 10:37:05;;;;;;;4.63;2.97;;;12.50;99.90;;;;;;5023002;28;20225;-71
2021/10/15 10:40:12;;;;;;;9.23;3.77;;;12.50;99.90;;;;;;5028152;28;20612;-70
2021/10/15 10:43:04;;;;;;;6.20;2.90;;;12.60;99.90;;;;;;5026633;28;20228;-71
2021/10/15 10:46:11;;;;;;;5.80;3.30;;;12.50;99.90;;;;;;5024806;28;20198;-72
2021/10/15 10:49:19;;;;;;;8.30;3.27;;;12.70;99.90;;;;;;5026848;28;20205;-71
2021/10/15 10:52:24;;;;;;;9.57;2.60;;;12.70;99.90;;;;;;5021941;28;20212;-71
2021/10/15 10:55:33;;;;;;;4.87;2.07;;;12.70;99.90;;;;;;5037832;28;20197;-71
2021/10/15 10:58:33;;;;;;;5.23;2.10;;;12.70;99.90;;;;;;5026387;28;20202;-71
2021/10/15 11:01:28;;;;;;;7.63;2.27;;;12.80;99.90;;;;;;5029905;28;20230;-71
2021/10/15 11:04:27;;;;;;;5.83;2.00;;;13.00;99.90;;;;;;5029820;28;20612;-72
2021/10/15 11:07:24;;;;;;;4.37;1.70;;;13.30;99.90;;;;;;5022322;28;20271;-71
2021/10/15 11:10:22;;;;;;;3.13;1.77;;;13.40;99.90;;;;;;5034974;28;20306;-72
2021/10/15 11:13:09;;;;;;;3.93;1.37;;;13.50;99.90;;;;;;5028429;28;20199;-71
2021/10/15 11:15:53;;;;;;;6.77;1.83;;;13.60;99.90;;;;;;5024718;28;20648;-71
2021/10/15 11:18:43;;;;;;;5.80;1.90;;;13.70;99.90;;;;;;5023775;28;20684;-72
2021/10/15 11:21:31;;;;;;;5.20;1.63;;;13.90;99.90;;;;;;5018276;28;20205;-71
2021/10/15 11:24:18;;;;;;;5.17;2.10;;;14.00;99.90;;;;;;5029906;28;20220;-71
2021/10/15 11:27:18;;;;;;;10.37;3.53;;;14.00;99.90;;;;;;5025650;28;20587;-71
2021/10/15 11:30:09;;;;;;;2.70;2.00;;;14.10;99.90;;;;;;5030065;28;20213;-72
2021/10/15 11:32:56;;;;;;;4.00;1.77;;;14.30;99.90;;;;;;5027077;28;20227;-71
2021/10/15 11:35:50;;;;;;;6.67;2.50;;;14.50;99.90;;;;;;5025318;28;20215;-71
2021/10/15 11:38:37;;;;;;;5.03;1.63;;;14.60;99.90;;;;;;5024413;28;20247;-71
2021/10/15 11:41:24;;;;;;;6.13;2.20;;;14.70;99.90;;;;;;5020670;28;20224;-71
2021/10/15 11:44:11;;;;;;;4.47;2.20;;;14.90;99.90;;;;;;5031824;28;20226;-68
2021/10/15 11:46:58;;;;;;;3.63;2.13;;;15.10;99.90;;;;;;5030186;28;20275;-71
2021/10/15 11:49:45;;;;;;;6.87;2.07;;;15.40;99.90;;;;;;5023578;28;20261;-71
2021/10/15 11:52:56;;;;;;;3.03;1.63;;;15.60;99.90;;;;;;5021619;28;20193;-71
2021/10/15 11:55:44;;;;;;;5.73;1.80;;;15.70;99.90;;;;;;5030997;28;20299;-71
2021/10/15 11:58:33;;;;;;;6.40;2.00;;;15.80;99.90;;;;;;5039900;28;20253;-70
2021/10/15 12:01:23;;;;;;;4.67;2.00;;;15.90;99.90;;;;;;5039226;28;20210;-71
2021/10/15 12:04:11;;;;;;;8.40;2.27;;;15.90;99.90;;;;;;5035301;28;20216;-71
2021/10/15 12:06:58;;;;;;;6.53;1.97;;;15.90;99.90;;;;;;5034631;28;20204;-71
2021/10/15 12:09:49;;;;;;;4.13;1.60;;;15.90;99.90;;;;;;5045125;28;20212;-71
2021/10/15 12:12:36;;;;;;;3.93;1.80;;;16.10;99.90;;;;;;5031516;28;20735;-71
2021/10/15 12:15:24;;;;;;;6.83;1.87;;;16.10;99.90;;;;;;5031615;28;20687;-71
2021/10/15 12:18:11;;;;;;;5.13;2.20;;;15.80;99.90;;;;;;5035810;28;20188;-71
2021/10/15 12:21:10;;;;;;;8.23;2.03;;;15.80;99.90;;;;;;5030523;28;20200;-71
2021/10/15 12:23:57;;;;;;;5.67;1.70;;;15.70;99.90;;;;;;5033632;28;20214;-71
2021/10/15 12:26:45;;;;;;;6.30;1.80;;;15.70;99.90;;;;;;5032626;28;20213;-71
2021/10/15 12:29:36;;;;;;;7.70;2.17;;;15.90;99.90;;;;;;5037801;28;20684;-71
2021/10/15 12:32:27;;;;;;;4.83;1.90;;;16.10;99.90;;;;;;5035044;28;20298;-70
2021/10/15 12:35:17;;;;;;;7.70;2.27;;;16.20;99.90;;;;;;5034599;28;20208;-70
2021/10/15 12:38:05;;;;;;;5.57;1.70;;;16.60;99.90;;;;;;5030514;28;20211;-70
2021/10/15 12:40:52;;;;;;;8.70;2.20;;;16.90;99.90;;;;;;5028408;28;20212;-70
2021/10/15 12:43:41;;;;;;;3.87;2.20;;;16.80;99.90;;;;;;5030349;28;20203;-70
2021/10/15 12:46:28;;;;;;;11.30;2.30;;;16.60;99.90;;;;;;5033735;28;20212;-71
2021/10/15 12:49:15;;;;;;;4.90;2.10;;;16.70;99.90;;;;;;5040987;28;20199;-71
2021/10/15 12:52:02;;;;;;;5.23;1.70;;;16.60;99.90;;;;;;5040379;28;20226;-70
2021/10/15 12:54:50;;;;;;;6.13;2.10;;;16.20;99.90;;;;;;5033424;28;20197;-71
2021/10/15 12:57:37;;;;;;;5.20;2.10;;;16.00;99.90;;;;;;5037475;28;20202;-71
2021/10/15 13:00:26;;;;;;;5.50;2.20;;;15.90;99.90;;;;;;5038651;28;20203;-70
2021/10/15 13:03:15;;;;;;;8.20;2.40;;;15.90;99.90;;;;;;5033229;28;20471;-70
2021/10/15 13:06:03;;;;;;;6.03;2.00;;;15.80;99.90;;;;;;5027095;28;20225;-71
2021/10/15 13:08:52;;;;;;;7.97;2.10;;;15.80;99.90;;;;;;5033514;28;20679;-71
2021/10/15 13:11:39;;;;;;;5.67;2.00;;;15.90;99.90;;;;;;5030601;28;20208;-71
2021/10/15 13:14:25;;;;;;;13.20;2.20;;;16.10;99.90;;;;;;5028894;28;20279;-70
2021/10/15 13:17:14;;;;;;;10.30;2.10;;;16.00;99.90;;;;;;5029446;28;20262;-70
2021/10/15 13:20:01;;;;;;;8.73;2.33;;;16.00;99.90;;;;;;5036433;28;20202;-70
2021/10/15 13:22:48;;;;;;;8.17;1.80;;;15.80;99.90;;;;;;5029296;28;20575;-70
2021/10/15 13:25:35;;;;;;;3.90;2.00;;;15.50;99.90;;;;;;5023568;28;20585;-70
2021/10/15 13:28:22;;;;;;;7.00;2.13;;;15.40;99.90;;;;;;5030089;28;20252;-70
2021/10/15 13:31:10;;;;;;;8.10;1.80;;;15.40;99.90;;;;;;5025918;28;20682;-70
2021/10/15 13:33:58;;;;;;;11.00;2.40;;;15.50;99.90;;;;;;5023384;28;20271;-70
2021/10/15 13:36:47;;;;;;;7.20;2.30;;;15.60;99.90;;;;;;5034466;28;20247;-71
2021/10/15 13:39:34;;;;;;;6.73;2.40;;;15.60;99.90;;;;;;5027896;28;20256;-70
2021/10/15 13:45:35;;;;;;;13.57;2.13;;;15.40;99.90;;;;;;5037796;28;20228;-71
2021/10/15 13:51:31;;;;;;;5.80;2.20;;;15.40;99.90;;;;;;5024496;28;20221;-71
2021/10/15 13:54:18;;;;;;;8.90;2.53;;;15.40;99.90;;;;;;5023770;28;20249;-70
2021/10/15 13:57:08;;;;;;;6.53;2.50;;;15.20;99.90;;;;;;5031082;28;20197;-70
2021/10/15 13:59:59;;;;;;;3.30;1.53;;;15.30;99.90;;;;;;5030063;28;20204;-69
2021/10/15 14:02:51;;;;;;;5.07;2.07;;;15.30;99.90;;;;;;5035858;28;20211;-70
2021/10/15 14:05:38;;;;;;;8.30;2.50;;;15.50;99.90;;;;;;5031754;28;20222;-70
2021/10/15 14:08:26;;;;;;;5.00;2.03;;;15.70;99.90;;;;;;5026848;28;20243;-71
2021/10/15 14:11:18;;;;;;;4.27;2.00;;;15.90;99.90;;;;;;5037810;28;20320;-70
2021/10/15 14:14:04;;;;;;;9.13;2.40;;;16.10;99.90;;;;;;5030610;28;20216;-70